עמוד ראשי
METAR-TAF:

METAR-TAF

שדות תעופה :

מקדשי אבו סימבל, מצרים

קו רוחב: 22-22-33N, קו אורך: 31-36-42E, גובה: 188מטר

תצפית מזג אוויר נוכחית

הדו"ח נערך לפני 1 שעות ו 8דקות, בשעה 22:00 UTC
רוח רגועה
טמפרטורת 34 צלסיוס
לחות 12%
לחץ 1003 hPa
ראות 10 קילומטר או יותר
ללא עננים שבסיסם נמוך מ 5000 רגל או קומולונימבוס

METAR: HEBL 152200Z 00000KT CAVOK 34/01 Q1003 NOSIG

זמן: 01:08 (23:08 UTC)

תחזית

הדו"ח נערך לפני 6 שעות ו 8דקות, בשעה 17:00 UTC
תחזית בתוקף מ 15 ב 18 UTC עד 16 ב 24 UTC
רוח 6קשר מכיוון דרום/דרום-מערב
ראות 10 קילומטר או יותר
ללא עננים שבסיסם נמוך מ 5000 רגל או קומולונימבוס

TAF: HEBL 151700Z 1518/1624 20006KT CAVOK

תצפיות ותחזיות מזג אוויר לגבי יותר מ- 4,000 שדות תעופה ברחבי העולם. דוחות METAR ו- TAF.

התחנות הזמינות מסומנות בנקודות צהובות ואדומות על גבי המפה.

העבר את העכבר לנקודה הצבעונית על מנת לראות את שם התחנה.

לאחר מכן, לחץ כדי לראות את תוכן ואת תחזיות מזג האוויר.

כדי לשנות את המפה: לחץ על הכפתורים הירוקים עם הפלוס השחור כדי להתקרב; על הכפתור הירוק עם המקף כדי להתרחק; או בחיצים הירוקים למפות סמוכות.


METAR-TAF: